createdAt,value
2022-10-02T00:00:46.065Z,1.40
2022-10-02T00:03:37.416Z,1.52
2022-10-02T00:06:21.533Z,1.48
2022-10-02T00:08:57.346Z,1.23
2022-10-02T00:11:38.994Z,1.20
2022-10-02T00:14:14.137Z,1.55
2022-10-02T00:16:53.570Z,1.40
2022-10-02T00:19:20.736Z,1.42
2022-10-02T00:22:12.771Z,1.40
2022-10-02T00:24:47.076Z,1.45
2022-10-02T00:27:59.129Z,1.37
2022-10-02T00:30:33.817Z,1.13
2022-10-02T00:33:27.167Z,1.42
2022-10-02T00:36:31.194Z,1.45
2022-10-02T00:39:07.104Z,3.28
2022-10-02T00:41:43.254Z,1.42
2022-10-02T00:44:57.230Z,1.85
2022-10-02T00:47:57.023Z,1.48
2022-10-02T00:50:40.255Z,1.50
2022-10-02T00:53:48.671Z,1.60
2022-10-02T00:56:45.747Z,2.08
2022-10-02T00:59:21.004Z,1.20
2022-10-02T01:04:33.422Z,1.50
2022-10-02T01:07:02.792Z,1.85
2022-10-02T01:09:29.983Z,1.52
2022-10-02T01:11:57.746Z,1.40
2022-10-02T01:14:40.261Z,1.63
2022-10-02T01:17:25.870Z,1.73
2022-10-02T01:23:07.204Z,1.75
2022-10-02T01:25:34.350Z,1.58
2022-10-02T01:28:01.719Z,1.73
2022-10-02T01:30:31.845Z,1.98
2022-10-02T01:33:05.789Z,1.67
2022-10-02T01:35:38.071Z,1.63
2022-10-02T01:38:11.152Z,1.77
2022-10-02T01:40:41.151Z,1.42
2022-10-02T01:43:14.697Z,1.70
2022-10-02T01:45:41.618Z,1.98
2022-10-02T01:48:33.421Z,2.00
2022-10-02T01:51:33.479Z,2.40
2022-10-02T01:54:16.474Z,2.08
2022-10-02T01:56:52.062Z,1.15
2022-10-02T01:59:57.733Z,1.45
2022-10-02T02:03:02.324Z,1.55
2022-10-02T02:05:40.796Z,1.70
2022-10-02T02:08:31.832Z,1.58
2022-10-02T02:11:17.672Z,1.45
2022-10-02T02:14:16.167Z,1.30
2022-10-02T02:16:56.184Z,1.67
2022-10-02T02:19:59.397Z,1.70
2022-10-02T02:22:36.548Z,1.48
2022-10-02T02:25:18.647Z,1.38
2022-10-02T02:28:03.423Z,1.80
2022-10-02T02:30:32.253Z,1.50
2022-10-02T02:33:14.765Z,1.80
2022-10-02T02:35:48.728Z,1.80
2022-10-02T02:38:25.808Z,1.30
2022-10-02T02:40:56.505Z,1.50
2022-10-02T02:43:34.578Z,1.98
2022-10-02T02:46:10.581Z,1.58
2022-10-02T02:48:45.859Z,1.35
2022-10-02T02:51:26.520Z,1.58
2022-10-02T02:54:11.561Z,1.83
2022-10-02T02:56:42.668Z,1.60
2022-10-02T02:59:13.442Z,1.60
2022-10-02T03:01:42.166Z,1.58
2022-10-02T03:04:13.859Z,1.70
2022-10-02T03:06:49.360Z,1.50
2022-10-02T03:09:23.823Z,1.90
2022-10-02T03:12:20.818Z,1.63
2022-10-02T03:14:59.645Z,1.70
2022-10-02T03:18:18.013Z,1.92
2022-10-02T03:21:11.798Z,1.50
2022-10-02T03:24:10.354Z,1.52
2022-10-02T03:26:52.463Z,1.50
2022-10-02T03:29:30.122Z,1.90
2022-10-02T03:31:59.796Z,1.58
2022-10-02T03:34:27.261Z,1.92
2022-10-02T03:36:54.122Z,1.58
2022-10-02T03:39:25.171Z,1.42
2022-10-02T03:41:53.813Z,1.27
2022-10-02T03:44:20.791Z,2.05
2022-10-02T03:46:47.851Z,1.30
2022-10-02T03:49:14.668Z,1.70
2022-10-02T03:51:41.443Z,2.08
2022-10-02T03:54:21.520Z,1.83
2022-10-02T03:56:55.543Z,1.80
2022-10-02T03:59:47.120Z,1.33
2022-10-02T04:02:25.255Z,1.67
2022-10-02T04:05:08.461Z,1.50
2022-10-02T04:07:42.152Z,1.50
2022-10-02T04:10:32.786Z,1.60
2022-10-02T04:13:14.462Z,1.63
2022-10-02T04:15:57.895Z,1.67
2022-10-02T04:18:50.247Z,1.73
2022-10-02T04:21:36.329Z,2.63
2022-10-02T04:24:14.548Z,1.67
2022-10-02T04:26:53.687Z,2.05
2022-10-02T04:29:28.453Z,1.95
2022-10-02T04:32:11.935Z,2.15
2022-10-02T04:34:39.394Z,2.40
2022-10-02T04:38:07.136Z,2.60
2022-10-02T04:41:08.185Z,2.55
2022-10-02T04:44:35.851Z,1.70
2022-10-02T04:47:24.131Z,1.80
2022-10-02T04:50:12.407Z,4.85
2022-10-02T04:53:14.224Z,1.75
2022-10-02T04:56:19.477Z,1.98
2022-10-02T04:59:24.998Z,1.70
2022-10-02T05:02:16.301Z,2.55
2022-10-02T05:05:06.170Z,4.78
2022-10-02T05:08:10.206Z,1.90
2022-10-02T05:10:52.027Z,1.95
2022-10-02T05:14:12.116Z,2.17
2022-10-02T05:17:11.346Z,1.77
2022-10-02T05:20:20.588Z,2.35
2022-10-02T05:23:07.546Z,1.80
2022-10-02T05:25:35.642Z,2.25
2022-10-02T05:28:08.596Z,2.20
2022-10-02T05:30:52.785Z,1.98
2022-10-02T05:34:02.616Z,1.60
2022-10-02T05:36:43.084Z,1.90
2022-10-02T05:39:28.348Z,2.10
2022-10-02T05:42:15.793Z,1.55
2022-10-02T05:44:58.002Z,2.15
2022-10-02T05:47:39.370Z,2.10
2022-10-02T05:50:18.651Z,2.05
2022-10-02T05:53:08.807Z,2.20
2022-10-02T05:55:49.370Z,2.03
2022-10-02T05:58:42.003Z,2.40
2022-10-02T06:01:22.996Z,2.08
2022-10-02T06:04:03.911Z,1.90
2022-10-02T06:06:54.248Z,2.03
2022-10-02T06:09:36.247Z,2.28
2022-10-02T06:12:14.040Z,2.28
2022-10-02T06:14:59.405Z,1.92
2022-10-02T06:17:34.200Z,2.10
2022-10-02T06:23:41.691Z,1.85
2022-10-02T06:26:38.322Z,2.20
2022-10-02T06:29:41.608Z,1.90
2022-10-02T06:32:36.769Z,2.17
2022-10-02T06:35:12.980Z,2.17
2022-10-02T06:37:50.964Z,2.33
2022-10-02T06:40:33.799Z,2.83
2022-10-02T06:43:52.249Z,2.45
2022-10-02T06:47:19.623Z,2.17
2022-10-02T06:50:33.780Z,2.35
2022-10-02T06:53:47.606Z,2.10
2022-10-02T06:56:29.913Z,2.13
2022-10-02T06:59:47.161Z,2.13
2022-10-02T07:02:32.945Z,1.90
2022-10-02T07:05:02.841Z,2.47
2022-10-02T07:07:44.749Z,2.08
2022-10-02T07:10:34.105Z,2.00
2022-10-02T07:13:28.911Z,2.00
2022-10-02T07:16:17.023Z,1.60
2022-10-02T07:19:26.673Z,1.90
2022-10-02T07:22:44.704Z,1.90
2022-10-02T07:25:44.363Z,2.22
2022-10-02T07:28:17.232Z,1.80
2022-10-02T07:31:20.049Z,1.85
2022-10-02T07:34:06.532Z,1.63
2022-10-02T07:37:08.988Z,2.38
2022-10-02T07:40:06.965Z,1.90
2022-10-02T07:42:49.234Z,1.83
2022-10-02T07:45:35.957Z,2.03
2022-10-02T07:48:28.664Z,2.40
2022-10-02T07:51:50.206Z,2.03
2022-10-02T07:55:01.386Z,1.85
2022-10-02T07:57:45.798Z,2.40
2022-10-02T08:00:17.782Z,2.28
2022-10-02T08:03:14.723Z,2.97
2022-10-02T08:05:47.511Z,1.83
2022-10-02T08:08:53.920Z,1.90
2022-10-02T08:11:53.092Z,2.58
2022-10-02T08:14:41.518Z,1.95
2022-10-02T08:17:27.658Z,2.10
2022-10-02T08:20:07.340Z,1.80
2022-10-02T08:22:53.506Z,2.30
2022-10-02T08:25:31.046Z,2.05
2022-10-02T08:28:18.103Z,1.77
2022-10-02T08:30:45.052Z,2.05
2022-10-02T08:33:22.976Z,2.42
2022-10-02T08:36:01.846Z,1.80
2022-10-02T08:38:45.424Z,1.67
2022-10-02T08:41:43.830Z,2.58
2022-10-02T08:44:38.223Z,1.85
2022-10-02T08:47:47.471Z,1.90
2022-10-02T08:51:05.206Z,2.20
2022-10-02T08:54:02.726Z,2.10
2022-10-02T08:57:04.685Z,2.25
2022-10-02T08:59:53.392Z,2.00
2022-10-02T09:03:15.763Z,1.60
2022-10-02T09:06:37.594Z,1.60
2022-10-02T09:09:46.950Z,1.65
2022-10-02T09:13:14.280Z,2.03
2022-10-02T09:15:47.127Z,1.63
2022-10-02T09:18:41.314Z,1.67
2022-10-02T09:21:40.611Z,1.60
2022-10-02T09:24:32.040Z,1.70
2022-10-02T09:27:34.451Z,1.80
2022-10-02T09:30:20.559Z,2.05
2022-10-02T09:33:17.005Z,2.13
2022-10-02T09:36:10.519Z,1.50
2022-10-02T09:39:04.096Z,1.77
2022-10-02T09:42:08.457Z,1.88
2022-10-02T09:45:11.302Z,2.42
2022-10-02T09:48:19.737Z,2.45
2022-10-02T09:51:26.590Z,2.25
2022-10-02T09:54:33.103Z,1.65
2022-10-02T09:57:43.579Z,2.00
2022-10-02T10:00:22.284Z,2.00
2022-10-02T10:03:26.092Z,1.98
2022-10-02T10:06:26.797Z,2.10
2022-10-02T10:09:35.330Z,2.08
2022-10-02T10:12:42.069Z,1.92
2022-10-02T10:15:58.924Z,1.90
2022-10-02T10:18:51.808Z,3.55
2022-10-02T10:21:42.761Z,4.40
2022-10-02T10:24:43.592Z,1.83
2022-10-02T10:27:38.798Z,1.88
2022-10-02T10:30:31.129Z,1.65
2022-10-02T10:33:01.415Z,1.35
2022-10-02T10:35:57.099Z,1.23
2022-10-02T10:38:38.243Z,1.33
2022-10-02T10:41:23.508Z,1.55
2022-10-02T10:44:30.830Z,1.40
2022-10-02T10:47:28.487Z,1.65
2022-10-02T10:50:39.846Z,1.30
2022-10-02T10:53:34.855Z,1.23
2022-10-02T10:56:37.177Z,2.95
2022-10-02T10:59:42.464Z,1.58
2022-10-02T11:02:31.486Z,1.30
2022-10-02T11:05:25.035Z,1.40
2022-10-02T11:08:29.366Z,1.60
2022-10-02T11:11:39.298Z,2.45
2022-10-02T11:14:41.674Z,1.88
2022-10-02T11:17:54.186Z,1.17
2022-10-02T11:20:34.609Z,2.40
2022-10-02T11:23:23.157Z,1.20
2022-10-02T11:26:16.792Z,2.15
2022-10-02T11:29:04.909Z,1.27
2022-10-02T11:32:14.369Z,1.25
2022-10-02T11:35:44.520Z,1.13
2022-10-02T11:39:02.558Z,1.50
2022-10-02T11:42:10.107Z,1.38
2022-10-02T11:44:44.983Z,1.83
2022-10-02T11:47:49.176Z,1.80
2022-10-02T11:50:41.442Z,1.63
2022-10-02T11:53:44.383Z,4.45
2022-10-02T11:57:01.801Z,1.75
2022-10-02T12:00:14.909Z,1.65
2022-10-02T12:02:56.350Z,1.10
2022-10-02T12:05:48.576Z,2.50
2022-10-02T12:08:46.894Z,1.52
2022-10-02T12:11:54.430Z,1.90
2022-10-02T12:15:10.989Z,2.50
2022-10-02T12:17:54.708Z,2.13
2022-10-02T12:21:02.443Z,2.03
2022-10-02T12:24:18.822Z,2.13
2022-10-02T12:27:13.234Z,2.00
2022-10-02T12:30:07.656Z,1.30
2022-10-02T12:33:17.565Z,1.95
2022-10-02T12:36:10.055Z,1.90
2022-10-02T12:39:16.754Z,1.70
2022-10-02T12:42:41.051Z,2.13
2022-10-02T12:45:23.562Z,2.10
2022-10-02T12:48:36.094Z,2.30
2022-10-02T12:51:12.202Z,2.42
2022-10-02T12:54:33.405Z,2.22
2022-10-02T12:57:52.521Z,2.20
2022-10-02T13:00:46.125Z,2.22
2022-10-02T13:03:58.067Z,1.80
2022-10-02T13:06:52.188Z,2.20
2022-10-02T13:09:46.761Z,2.40
2022-10-02T13:12:28.661Z,2.58
2022-10-02T13:15:26.827Z,1.88
2022-10-02T13:18:15.054Z,2.53
2022-10-02T13:21:06.203Z,2.47
2022-10-02T13:23:58.092Z,3.58
2022-10-02T13:26:53.563Z,2.25
2022-10-02T13:29:45.173Z,2.28
2022-10-02T13:32:52.900Z,2.25
2022-10-02T13:35:50.501Z,2.60
2022-10-02T13:39:10.014Z,2.28
2022-10-02T13:42:21.908Z,2.03
2022-10-02T13:45:29.540Z,1.80
2022-10-02T13:48:31.679Z,2.03
2022-10-02T13:51:16.676Z,1.70
2022-10-02T13:54:04.346Z,2.38
2022-10-02T13:56:56.279Z,1.80
2022-10-02T13:59:42.909Z,1.40
2022-10-02T14:02:10.873Z,0.82
2022-10-02T14:04:55.970Z,0.95
2022-10-02T14:07:44.588Z,2.13
2022-10-02T14:10:43.066Z,1.00
2022-10-02T14:14:17.057Z,0.90
2022-10-02T14:17:00.533Z,1.83
2022-10-02T14:19:52.920Z,3.25
2022-10-02T14:22:40.421Z,3.10
2022-10-02T14:25:22.720Z,2.50
2022-10-02T14:28:19.235Z,1.90
2022-10-02T14:31:26.846Z,1.30
2022-10-02T14:34:49.846Z,1.02
2022-10-02T14:38:04.697Z,1.40
2022-10-02T14:40:57.614Z,1.10
2022-10-02T14:43:42.758Z,1.48
2022-10-02T14:46:36.134Z,1.55
2022-10-02T14:49:40.479Z,1.25
2022-10-02T14:52:42.519Z,1.25
2022-10-02T14:55:34.926Z,1.52
2022-10-02T14:58:31.460Z,1.30
2022-10-02T15:01:26.580Z,1.30
2022-10-02T15:04:15.532Z,1.35
2022-10-02T15:07:11.433Z,1.60
2022-10-02T15:10:13.313Z,2.05
2022-10-02T15:13:34.446Z,1.70
2022-10-02T15:16:38.669Z,1.60
2022-10-02T15:19:37.564Z,1.70
2022-10-02T15:22:20.384Z,2.38
2022-10-02T15:25:36.240Z,2.58
2022-10-02T15:28:44.768Z,2.03
2022-10-02T15:31:32.109Z,2.58
2022-10-02T15:34:35.655Z,2.03
2022-10-02T15:37:21.953Z,2.20
2022-10-02T15:40:31.313Z,2.08
2022-10-02T15:43:44.153Z,1.52
2022-10-02T15:46:26.151Z,1.60
2022-10-02T15:49:30.906Z,1.58
2022-10-02T15:52:33.773Z,2.10
2022-10-02T15:55:23.068Z,1.83
2022-10-02T15:58:15.710Z,2.47
2022-10-02T16:01:06.108Z,1.98
2022-10-02T16:03:45.319Z,2.38
2022-10-02T16:06:44.175Z,1.90
2022-10-02T16:10:03.398Z,2.25
2022-10-02T16:13:13.421Z,2.00
2022-10-02T16:16:16.206Z,2.40
2022-10-02T16:19:14.508Z,2.03
2022-10-02T16:22:17.892Z,2.03
2022-10-02T16:25:35.317Z,2.33
2022-10-02T16:28:24.880Z,1.88
2022-10-02T16:31:11.205Z,1.98
2022-10-02T16:34:09.031Z,1.70
2022-10-02T16:36:57.138Z,4.70
2022-10-02T16:39:40.897Z,3.17
2022-10-02T16:42:25.767Z,3.10
2022-10-02T16:45:54.002Z,2.47
2022-10-02T16:49:01.981Z,1.98
2022-10-02T16:51:57.594Z,2.50
2022-10-02T16:54:42.063Z,2.83
2022-10-02T16:57:24.374Z,2.65
2022-10-02T17:00:11.116Z,2.45
2022-10-02T17:02:53.320Z,2.55
2022-10-02T17:05:44.107Z,2.35
2022-10-02T17:08:28.690Z,1.95
2022-10-02T17:11:17.740Z,2.90
2022-10-02T17:14:18.597Z,3.05
2022-10-02T17:16:56.025Z,3.20
2022-10-02T17:19:50.372Z,2.95
2022-10-02T17:23:11.794Z,4.70
2022-10-02T17:26:08.706Z,2.95
2022-10-02T17:28:50.462Z,2.25
2022-10-02T17:31:24.876Z,2.60
2022-10-02T17:34:01.525Z,3.10
2022-10-02T17:36:49.724Z,2.63
2022-10-02T17:39:51.784Z,2.35
2022-10-02T17:42:24.056Z,2.25
2022-10-02T17:45:26.568Z,2.40
2022-10-02T17:48:15.604Z,2.40
2022-10-02T17:51:51.248Z,4.28
2022-10-02T17:55:13.957Z,2.78
2022-10-02T17:58:00.221Z,3.00
2022-10-02T18:00:38.735Z,2.45
2022-10-02T18:03:43.991Z,2.88
2022-10-02T18:06:54.410Z,2.58
2022-10-02T18:10:14.701Z,2.25
2022-10-02T18:13:01.024Z,2.58
2022-10-02T18:16:22.355Z,2.92
2022-10-02T18:19:50.989Z,3.45
2022-10-02T18:22:33.267Z,3.33
2022-10-02T18:25:07.800Z,3.22
2022-10-02T18:28:02.940Z,3.50
2022-10-02T18:31:08.372Z,3.17
2022-10-02T18:33:42.431Z,3.40
2022-10-02T18:36:41.094Z,3.20
2022-10-02T18:39:51.132Z,3.70
2022-10-02T18:42:50.354Z,3.35
2022-10-02T18:45:48.025Z,2.92
2022-10-02T18:48:47.130Z,3.00
2022-10-02T18:51:47.244Z,2.85
2022-10-02T18:55:17.132Z,2.90
2022-10-02T18:58:29.438Z,3.10
2022-10-02T19:01:28.883Z,3.00
2022-10-02T19:04:32.565Z,3.33
2022-10-02T19:07:22.428Z,3.60
2022-10-02T19:10:36.672Z,3.58
2022-10-02T19:13:39.306Z,3.70
2022-10-02T19:16:25.866Z,3.67
2022-10-02T19:19:28.109Z,3.80
2022-10-02T19:22:01.481Z,3.92
2022-10-02T19:24:37.518Z,3.65
2022-10-02T19:27:15.181Z,3.83
2022-10-02T19:29:54.128Z,3.55
2022-10-02T19:32:29.176Z,4.72
2022-10-02T19:37:39.487Z,5.00
2022-10-02T19:40:17.024Z,5.87
2022-10-02T19:42:54.776Z,6.20
2022-10-02T19:45:28.841Z,4.75
2022-10-02T19:48:10.429Z,4.50
2022-10-02T19:50:47.063Z,4.97
2022-10-02T19:53:25.268Z,5.38
2022-10-02T19:56:18.109Z,5.82
2022-10-02T19:58:58.756Z,5.50
2022-10-02T20:01:31.444Z,4.82
2022-10-02T20:04:02.840Z,5.32
2022-10-02T20:06:40.096Z,4.35
2022-10-02T20:09:19.903Z,4.00
2022-10-02T20:11:53.255Z,4.68
2022-10-02T20:14:38.863Z,4.32
2022-10-02T20:19:53.688Z,4.05
2022-10-02T20:22:29.426Z,3.80
2022-10-02T20:25:26.597Z,3.65
2022-10-02T20:28:31.355Z,3.35
2022-10-02T20:31:06.185Z,3.45
2022-10-02T20:33:45.119Z,3.50
2022-10-02T20:36:29.247Z,5.30
2022-10-02T20:39:05.266Z,3.60
2022-10-02T20:41:57.660Z,3.42
2022-10-02T20:44:30.414Z,3.08
2022-10-02T20:47:34.292Z,3.72
2022-10-02T20:50:16.251Z,4.10
2022-10-02T20:53:02.150Z,4.28
2022-10-02T20:55:48.947Z,4.15
2022-10-02T20:59:16.275Z,3.25
2022-10-02T21:02:12.797Z,2.78
2022-10-02T21:05:00.524Z,3.10
2022-10-02T21:08:15.736Z,2.90
2022-10-02T21:11:16.658Z,2.90
2022-10-02T21:14:02.615Z,4.75
2022-10-02T21:16:53.187Z,2.70
2022-10-02T21:20:00.368Z,2.53
2022-10-02T21:22:47.563Z,2.67
2022-10-02T21:25:33.152Z,3.00
2022-10-02T21:28:31.500Z,2.58
2022-10-02T21:31:40.460Z,2.85
2022-10-02T21:34:42.423Z,7.05
2022-10-02T21:37:55.699Z,9.27
2022-10-02T21:41:04.302Z,3.72
2022-10-02T21:43:52.933Z,2.63
2022-10-02T21:46:51.389Z,2.70
2022-10-02T21:49:32.810Z,2.35
2022-10-02T21:52:43.192Z,2.30
2022-10-02T21:55:39.542Z,2.47
2022-10-02T21:58:30.808Z,2.28
2022-10-02T22:01:08.442Z,2.65
2022-10-02T22:03:56.707Z,2.00
2022-10-02T22:06:30.702Z,2.13
2022-10-02T22:09:06.001Z,2.65
2022-10-02T22:14:41.284Z,3.00
2022-10-02T22:17:52.462Z,2.30
2022-10-02T22:21:03.188Z,2.95
2022-10-02T22:24:01.436Z,2.60
2022-10-02T22:26:55.764Z,3.33
2022-10-02T22:29:52.454Z,2.60
2022-10-02T22:32:50.320Z,3.13
2022-10-02T22:35:55.032Z,3.40
2022-10-02T22:38:38.430Z,3.08
2022-10-02T22:41:59.893Z,3.30
2022-10-02T22:44:52.983Z,2.33
2022-10-02T22:47:37.338Z,2.65
2022-10-02T22:50:23.394Z,3.77
2022-10-02T22:53:26.798Z,3.75
2022-10-02T22:55:57.672Z,2.60
2022-10-02T22:59:02.182Z,3.15
2022-10-02T23:01:48.833Z,2.70
2022-10-02T23:04:30.869Z,2.60
2022-10-02T23:07:13.484Z,2.47
2022-10-02T23:10:00.605Z,3.13
2022-10-02T23:12:40.427Z,2.47
2022-10-02T23:15:39.701Z,2.25
2022-10-02T23:18:23.620Z,2.88
2022-10-02T23:21:45.648Z,2.20
2022-10-02T23:24:13.324Z,2.50
2022-10-02T23:26:57.238Z,2.78
2022-10-02T23:30:00.351Z,3.15
2022-10-02T23:32:50.191Z,2.30
2022-10-02T23:35:30.256Z,2.40
2022-10-02T23:38:12.178Z,1.77
2022-10-02T23:41:46.533Z,1.85
2022-10-02T23:44:19.203Z,2.08
2022-10-02T23:46:49.078Z,2.70
2022-10-02T23:49:33.262Z,3.45
2022-10-02T23:52:31.230Z,2.28
2022-10-02T23:55:20.018Z,2.05
2022-10-02T23:58:18.323Z,2.17
